Time;durP1;ratioP1;P1;durP2;ratioP2;P2;SDS_P1;SDS_P2;PMS_P1;PMS_P2;Temp;Humidity;BMP_temperature;BMP_pressure;BME280_temperature;BME280_humidity;BME280_pressure;Samples;Min_cycle;Max_cycle;Signal;HPM_P1;HPM_P2
2022/09/10 00:01:07;;;;;;;5.90;2.63;;;;;;;;;;5028618;28;20048;-79
2022/09/10 00:03:34;;;;;;;2.25;2.15;;;;;;;;;;5055898;28;20569;-79
2022/09/10 00:06:03;;;;;;;2.85;2.40;;;;;;;;;;5069481;28;20055;-79
2022/09/10 00:08:32;;;;;;;2.50;2.38;;;;;;;;;;5067524;28;20052;-79
2022/09/10 00:11:03;;;;;;;3.75;2.72;;;;;;;;;;5032237;28;20060;-79
2022/09/10 00:13:30;;;;;;;2.88;2.60;;;;;;;;;;5030860;28;20151;-79
2022/09/10 00:15:58;;;;;;;6.18;3.00;;;;;;;;;;5036260;28;20057;-79
2022/09/10 00:18:25;;;;;;;6.20;2.47;;;;;;;;;;5049046;28;20513;-79
2022/09/10 00:20:53;;;;;;;4.15;2.10;;;;;;;;;;5046528;28;20463;-79
2022/09/10 00:23:25;;;;;;;2.97;2.33;;;;;;;;;;5045922;28;20044;-79
2022/09/10 00:25:53;;;;;;;3.95;2.58;;;;;;;;;;5031558;28;20053;-78
2022/09/10 00:28:21;;;;;;;2.72;2.40;;;;;;;;;;5030824;28;20354;-79
2022/09/10 00:30:49;;;;;;;4.20;2.58;;;;;;;;;;5028905;28;20045;-79
2022/09/10 00:33:18;;;;;;;6.18;2.40;;;;;;;;;;5051985;28;20067;-79
2022/09/10 00:35:45;;;;;;;3.88;2.33;;;;;;;;;;5018806;28;20049;-79
2022/09/10 00:38:13;;;;;;;2.53;1.90;;;;;;;;;;5036890;28;20040;-79
2022/09/10 00:40:41;;;;;;;3.10;2.17;;;;;;;;;;5019908;28;20345;-79
2022/09/10 00:43:14;;;;;;;2.50;2.08;;;;;;;;;;5070935;28;20033;-79
2022/09/10 00:45:43;;;;;;;2.15;2.05;;;;;;;;;;5041846;28;20044;-79
2022/09/10 00:48:19;;;;;;;2.70;2.17;;;;;;;;;;5035974;28;20087;-79
2022/09/10 00:50:47;;;;;;;3.35;2.30;;;;;;;;;;5059955;23;20057;-71
2022/09/10 00:53:16;;;;;;;2.78;2.15;;;;;;;;;;5043931;28;20064;-70
2022/09/10 00:55:45;;;;;;;2.15;1.92;;;;;;;;;;5043423;28;20053;-71
2022/09/10 00:58:14;;;;;;;2.25;1.92;;;;;;;;;;5043996;28;20041;-71
2022/09/10 01:00:41;;;;;;;2.30;2.08;;;;;;;;;;5026209;28;20056;-71
2022/09/10 01:03:10;;;;;;;2.83;2.10;;;;;;;;;;5024514;28;20079;-70
2022/09/10 01:05:41;;;;;;;3.65;2.10;;;;;;;;;;5040607;28;20095;-72
2022/09/10 01:08:12;;;;;;;2.00;1.90;;;;;;;;;;5026159;28;20484;-70
2022/09/10 01:11:00;;;;;;;2.47;2.00;;;;;;;;;;5042834;28;20037;-71
2022/09/10 01:13:46;;;;;;;2.40;2.20;;;;;;;;;;5026176;28;20037;-71
2022/09/10 01:16:21;;;;;;;4.05;2.13;;;;;;;;;;5025952;28;20107;-72
2022/09/10 01:19:03;;;;;;;6.13;1.92;;;;;;;;;;5022017;28;20159;-71
2022/09/10 01:21:55;;;;;;;2.05;1.80;;;;;;;;;;5023146;28;20272;-71
2022/09/10 01:24:34;;;;;;;2.90;2.17;;;;;;;;;;5016298;28;20049;-71
2022/09/10 01:27:23;;;;;;;2.20;2.10;;;;;;;;;;5025941;28;20045;-71
2022/09/10 01:30:13;;;;;;;4.10;1.80;;;;;;;;;;5026243;28;20037;-71
2022/09/10 01:32:49;;;;;;;1.80;1.70;;;;;;;;;;5041892;28;20045;-71
2022/09/10 01:35:20;;;;;;;2.05;1.95;;;;;;;;;;5028334;28;20040;-71
2022/09/10 01:37:50;;;;;;;1.90;1.80;;;;;;;;;;5012961;28;20140;-71
2022/09/10 01:40:19;;;;;;;2.83;2.50;;;;;;;;;;5038143;28;20532;-72
2022/09/10 01:42:48;;;;;;;3.28;2.72;;;;;;;;;;5027216;28;20041;-71
2022/09/10 01:45:16;;;;;;;2.42;2.22;;;;;;;;;;5024997;28;20137;-72
2022/09/10 01:47:50;;;;;;;2.85;2.60;;;;;;;;;;5032208;28;20228;-72
2022/09/10 01:50:22;;;;;;;3.05;2.38;;;;;;;;;;4999015;28;20595;-72
2022/09/10 01:52:50;;;;;;;;;;;;;;;;;;5023543;28;20702;-72
2022/09/10 01:55:28;;;;;;;3.20;2.22;;;;;;;;;;5043970;28;19921;-71
2022/09/10 01:58:04;;;;;;;3.50;2.80;;;;;;;;;;5038938;28;20041;-72
2022/09/10 02:00:42;;;;;;;2.97;2.78;;;;;;;;;;5035570;28;20048;-71
2022/09/10 02:03:15;;;;;;;2.67;2.25;;;;;;;;;;5042355;28;20064;-72
2022/09/10 02:05:44;;;;;;;3.55;3.03;;;;;;;;;;5044195;28;20048;-71
2022/09/10 02:08:15;;;;;;;3.88;2.80;;;;;;;;;;5033645;28;20459;-71
2022/09/10 02:10:50;;;;;;;3.72;2.92;;;;;;;;;;5029914;28;20411;-71
2022/09/10 02:13:20;;;;;;;4.63;3.20;;;;;;;;;;5030021;28;20045;-72
2022/09/10 02:16:08;;;;;;;3.50;2.97;;;;;;;;;;5036634;28;20052;-70
2022/09/10 02:18:41;;;;;;;5.10;3.10;;;;;;;;;;5044800;28;20132;-71
2022/09/10 02:21:09;;;;;;;3.75;2.58;;;;;;;;;;5030796;28;20501;-71
2022/09/10 02:23:49;;;;;;;3.00;2.70;;;;;;;;;;5027528;28;20415;-71
2022/09/10 02:26:17;;;;;;;2.60;2.40;;;;;;;;;;5039368;28;20412;-72
2022/09/10 02:28:44;;;;;;;5.65;3.00;;;;;;;;;;5024367;28;20042;-72
2022/09/10 02:31:12;;;;;;;2.53;2.30;;;;;;;;;;5023150;28;20048;-71
2022/09/10 02:33:39;;;;;;;3.00;2.70;;;;;;;;;;5028996;28;20403;-70
2022/09/10 02:36:07;;;;;;;5.65;3.20;;;;;;;;;;5026958;28;20064;-71
2022/09/10 02:38:34;;;;;;;3.65;2.67;;;;;;;;;;5023040;28;20084;-71
2022/09/10 02:41:02;;;;;;;6.50;2.90;;;;;;;;;;5022346;28;20110;-72
2022/09/10 02:43:30;;;;;;;4.43;2.72;;;;;;;;;;5024994;28;20040;-72
2022/09/10 02:46:03;;;;;;;6.55;2.70;;;;;;;;;;5024197;28;20411;-72
2022/09/10 02:48:30;;;;;;;2.90;2.70;;;;;;;;;;5019420;28;20230;-72
2022/09/10 02:50:58;;;;;;;3.40;3.03;;;;;;;;;;5026508;28;20558;-72
2022/09/10 02:53:29;;;;;;;3.10;2.60;;;;;;;;;;5028527;28;20566;-71
2022/09/10 02:56:00;;;;;;;3.58;2.90;;;;;;;;;;5016817;28;20056;-71
2022/09/10 02:58:30;;;;;;;5.80;2.60;;;;;;;;;;5025181;28;20047;-72
2022/09/10 03:01:05;;;;;;;5.63;2.38;;;;;;;;;;5014698;28;20516;-72
2022/09/10 03:03:33;;;;;;;2.85;2.50;;;;;;;;;;4999085;28;20140;-72
2022/09/10 03:06:01;;;;;;;4.13;2.70;;;;;;;;;;5027908;28;20083;-69
2022/09/10 03:08:29;;;;;;;5.53;2.80;;;;;;;;;;5030920;28;20052;-72
2022/09/10 03:10:58;;;;;;;5.07;3.03;;;;;;;;;;5018112;28;20713;-71
2022/09/10 03:13:26;;;;;;;3.38;2.38;;;;;;;;;;5030010;28;20048;-72
2022/09/10 03:15:54;;;;;;;4.85;2.60;;;;;;;;;;5049970;28;20045;-72
2022/09/10 03:18:22;;;;;;;3.83;2.60;;;;;;;;;;5054980;28;20063;-70
2022/09/10 03:20:50;;;;;;;3.25;2.95;;;;;;;;;;5047840;28;20049;-71
2022/09/10 03:23:17;;;;;;;4.88;2.60;;;;;;;;;;5024711;28;20455;-71
2022/09/10 03:25:46;;;;;;;3.47;2.50;;;;;;;;;;5025153;28;20038;-71
2022/09/10 03:28:20;;;;;;;4.97;2.75;;;;;;;;;;5030972;28;20039;-71
2022/09/10 03:30:48;;;;;;;2.78;2.30;;;;;;;;;;5025384;28;20045;-71
2022/09/10 03:33:19;;;;;;;2.75;2.40;;;;;;;;;;5021042;28;20049;-71
2022/09/10 03:35:47;;;;;;;3.17;2.13;;;;;;;;;;5043137;28;20087;-71
2022/09/10 03:38:15;;;;;;;3.50;2.28;;;;;;;;;;5044710;28;20664;-71
2022/09/10 03:40:42;;;;;;;2.33;2.08;;;;;;;;;;5027507;28;20074;-71
2022/09/10 03:43:09;;;;;;;4.50;1.70;;;;;;;;;;5027728;28;20037;-71
2022/09/10 03:45:37;;;;;;;2.50;2.30;;;;;;;;;;5043726;28;20041;-70
2022/09/10 03:48:05;;;;;;;3.88;2.20;;;;;;;;;;5020930;28;20073;-72
2022/09/10 03:50:33;;;;;;;4.05;2.00;;;;;;;;;;5017902;28;20417;-73
2022/09/10 03:53:02;;;;;;;2.80;2.17;;;;;;;;;;5026466;28;20453;-73
2022/09/10 03:55:30;;;;;;;3.50;2.00;;;;;;;;;;5027699;28;20049;-72
2022/09/10 03:57:58;;;;;;;3.17;2.17;;;;;;;;;;5011108;28;20594;-70
2022/09/10 04:00:26;;;;;;;4.40;1.80;;;;;;;;;;5010224;28;20063;-70
2022/09/10 04:02:53;;;;;;;6.93;2.03;;;;;;;;;;5018952;28;20044;-70
2022/09/10 04:05:22;;;;;;;2.20;2.00;;;;;;;;;;5026671;28;20041;-70
2022/09/10 04:07:49;;;;;;;1.98;1.88;;;;;;;;;;5026917;28;20453;-71
2022/09/10 04:10:17;;;;;;;3.50;1.88;;;;;;;;;;5027290;28;20041;-70
2022/09/10 04:12:45;;;;;;;2.78;2.00;;;;;;;;;;5011343;28;20037;-69
2022/09/10 04:15:13;;;;;;;2.55;1.80;;;;;;;;;;5025996;28;20552;-70
2022/09/10 04:17:40;;;;;;;3.70;1.92;;;;;;;;;;5026646;28;20041;-70
2022/09/10 04:20:09;;;;;;;4.80;1.88;;;;;;;;;;5024430;28;20521;-70
2022/09/10 04:22:37;;;;;;;1.70;1.60;;;;;;;;;;5022334;28;20052;-70
2022/09/10 04:25:05;;;;;;;4.70;2.08;;;;;;;;;;5015379;28;20037;-70
2022/09/10 04:27:32;;;;;;;3.78;1.70;;;;;;;;;;5039246;28;20056;-70
2022/09/10 04:30:01;;;;;;;3.50;1.88;;;;;;;;;;5026212;28;20124;-70
2022/09/10 04:32:29;;;;;;;3.25;2.10;;;;;;;;;;5010053;28;20041;-70
2022/09/10 04:34:57;;;;;;;1.58;1.52;;;;;;;;;;5006808;28;20041;-70
2022/09/10 04:37:26;;;;;;;2.75;1.73;;;;;;;;;;5004090;28;20070;-70
2022/09/10 04:39:54;;;;;;;1.60;1.50;;;;;;;;;;5020210;28;20545;-70
2022/09/10 04:42:24;;;;;;;4.82;1.85;;;;;;;;;;5022110;28;20060;-70
2022/09/10 04:44:52;;;;;;;3.88;2.13;;;;;;;;;;5004654;28;20543;-72
2022/09/10 04:47:20;;;;;;;5.93;2.05;;;;;;;;;;5007163;28;20508;-72
2022/09/10 04:49:47;;;;;;;4.20;2.45;;;;;;;;;;4991891;28;20064;-72
2022/09/10 04:52:20;;;;;;;18.25;2.38;;;;;;;;;;5021497;28;20052;-72
2022/09/10 04:54:49;;;;;;;9.00;2.63;;;;;;;;;;5027535;28;20047;-72
2022/09/10 04:57:17;;;;;;;22.20;3.10;;;;;;;;;;5026493;28;20045;-72
2022/09/10 04:59:45;;;;;;;10.82;2.75;;;;;;;;;;5027404;28;20044;-72
2022/09/10 05:02:13;;;;;;;15.35;2.85;;;;;;;;;;5018494;28;20051;-72
2022/09/10 05:04:41;;;;;;;23.58;2.95;;;;;;;;;;5044537;28;20033;-71
2022/09/10 05:07:08;;;;;;;11.32;3.10;;;;;;;;;;5022320;28;20033;-72
2022/09/10 05:09:36;;;;;;;4.25;2.65;;;;;;;;;;5021496;28;20520;-72
2022/09/10 05:12:04;;;;;;;34.70;3.80;;;;;;;;;;4994951;28;20084;-71
2022/09/10 05:14:32;;;;;;;44.58;4.63;;;;;;;;;;5024632;28;20055;-72
2022/09/10 05:17:00;;;;;;;4.85;2.75;;;;;;;;;;5002569;28;20535;-71
2022/09/10 05:19:29;;;;;;;4.55;3.35;;;;;;;;;;5022275;28;20041;-72
2022/09/10 05:22:02;;;;;;;8.00;2.88;;;;;;;;;;5026491;28;20120;-71
2022/09/10 05:24:33;;;;;;;3.38;3.17;;;;;;;;;;5011622;28;20404;-72
2022/09/10 05:27:03;;;;;;;2.88;2.67;;;;;;;;;;5018079;28;20047;-72
2022/09/10 05:29:30;;;;;;;46.65;4.25;;;;;;;;;;5026124;28;20112;-72
2022/09/10 05:31:58;;;;;;;7.00;3.88;;;;;;;;;;5028834;28;20044;-72
2022/09/10 05:34:25;;;;;;;10.13;3.58;;;;;;;;;;5021421;28;20047;-72
2022/09/10 05:36:53;;;;;;;5.78;3.15;;;;;;;;;;5009898;28;20046;-71
2022/09/10 05:39:21;;;;;;;8.98;3.90;;;;;;;;;;5010343;28;20404;-72
2022/09/10 05:41:49;;;;;;;4.65;3.15;;;;;;;;;;5009860;28;20033;-71
2022/09/10 05:44:17;;;;;;;3.80;3.40;;;;;;;;;;5001688;28;20045;-72
2022/09/10 05:46:47;;;;;;;9.10;3.75;;;;;;;;;;5029226;28;20684;-72
2022/09/10 05:49:15;;;;;;;5.57;3.50;;;;;;;;;;5029754;28;20045;-72
2022/09/10 05:51:42;;;;;;;4.32;3.20;;;;;;;;;;5029529;28;20045;-71
2022/09/10 05:54:11;;;;;;;4.63;3.70;;;;;;;;;;5020793;28;20048;-72
2022/09/10 05:56:39;;;;;;;6.57;3.58;;;;;;;;;;5010493;28;20112;-72
2022/09/10 05:59:08;;;;;;;3.97;3.67;;;;;;;;;;5025655;28;20512;-72
2022/09/10 06:01:37;;;;;;;3.22;2.65;;;;;;;;;;5026822;28;20102;-72
2022/09/10 06:04:05;;;;;;;3.50;3.00;;;;;;;;;;5012828;28;20049;-71
2022/09/10 06:06:34;;;;;;;3.83;2.85;;;;;;;;;;5036041;28;20394;-71
2022/09/10 06:09:06;;;;;;;2.60;2.50;;;;;;;;;;5004357;28;20041;-72
2022/09/10 06:11:43;;;;;;;2.67;2.58;;;;;;;;;;5021560;28;20242;-72
2022/09/10 06:14:13;;;;;;;3.10;2.90;;;;;;;;;;5041736;28;20115;-72
2022/09/10 06:16:41;;;;;;;2.70;2.50;;;;;;;;;;5026542;28;20096;-72
2022/09/10 06:19:10;;;;;;;3.85;2.80;;;;;;;;;;5013467;28;20179;-72
2022/09/10 06:21:38;;;;;;;2.35;2.22;;;;;;;;;;5037233;28;20417;-71
2022/09/10 06:24:06;;;;;;;4.03;2.45;;;;;;;;;;5017191;28;20037;-71
2022/09/10 06:26:36;;;;;;;3.63;2.88;;;;;;;;;;5023887;28;20117;-71
2022/09/10 06:29:07;;;;;;;2.80;2.60;;;;;;;;;;5039198;28;20124;-71
2022/09/10 06:31:37;;;;;;;3.15;2.95;;;;;;;;;;5003530;28;20100;-72
2022/09/10 06:34:05;;;;;;;10.00;3.13;;;;;;;;;;5017929;28;20088;-71
2022/09/10 06:36:33;;;;;;;3.00;2.80;;;;;;;;;;5038744;28;20099;-70
2022/09/10 06:39:02;;;;;;;2.85;2.47;;;;;;;;;;5035997;28;20049;-71
2022/09/10 06:41:36;;;;;;;2.67;2.47;;;;;;;;;;5006576;28;20091;-70
2022/09/10 06:44:08;;;;;;;;;;;;;;;;;;5027011;28;20044;-71
2022/09/10 06:46:41;;;;;;;2.50;2.30;;;;;;;;;;5026807;28;19921;-71
2022/09/10 06:49:30;;;;;;;2.30;2.15;;;;;;;;;;5009537;28;20577;-71
2022/09/10 06:51:57;;;;;;;2.58;2.38;;;;;;;;;;5072011;22;20051;-82
2022/09/10 06:54:25;;;;;;;2.58;2.47;;;;;;;;;;5028008;28;20037;-83
2022/09/10 06:56:56;;;;;;;4.45;2.95;;;;;;;;;;5023271;28;20053;-85
2022/09/10 06:59:24;;;;;;;2.50;2.30;;;;;;;;;;5053619;28;20033;-84
2022/09/10 07:01:52;;;;;;;2.60;2.40;;;;;;;;;;5028730;28;20045;-83
2022/09/10 07:04:24;;;;;;;3.35;2.50;;;;;;;;;;5026153;28;21226;-82
2022/09/10 07:06:55;;;;;;;2.47;2.28;;;;;;;;;;5035299;28;20041;-84
2022/09/10 07:09:27;;;;;;;2.95;2.42;;;;;;;;;;5056076;28;20060;-82
2022/09/10 07:12:27;;;;;;;3.20;2.90;;;;;;;;;;5038984;28;20064;-85
2022/09/10 07:15:05;;;;;;;2.60;2.40;;;;;;;;;;5057299;28;20418;-85
2022/09/10 07:17:34;;;;;;;3.10;2.90;;;;;;;;;;5026868;28;20546;-85
2022/09/10 07:20:06;;;;;;;2.88;2.67;;;;;;;;;;5011413;28;20821;-85
2022/09/10 07:22:45;;;;;;;4.95;3.10;;;;;;;;;;5059675;28;20159;-84
2022/09/10 07:25:14;;;;;;;6.25;3.30;;;;;;;;;;5030071;28;20044;-84
2022/09/10 07:27:55;;;;;;;3.30;3.00;;;;;;;;;;5042963;28;20048;-84
2022/09/10 07:30:23;;;;;;;3.10;2.90;;;;;;;;;;5044516;28;20135;-84
2022/09/10 07:32:51;;;;;;;2.45;2.35;;;;;;;;;;5016757;28;20056;-83
2022/09/10 07:35:24;;;;;;;;;;;;;;;;;;5026178;28;20139;-83
2022/09/10 07:37:51;;;;;;;3.33;2.53;;;;;;;;;;5045761;28;19969;-84
2022/09/10 07:40:23;;;;;;;2.42;2.33;;;;;;;;;;5051159;28;20058;-84
2022/09/10 07:42:51;;;;;;;3.75;2.65;;;;;;;;;;5057680;28;20040;-84
2022/09/10 07:45:20;;;;;;;2.28;2.10;;;;;;;;;;5041148;28;20506;-83
2022/09/10 07:47:48;;;;;;;2.40;2.20;;;;;;;;;;5039614;28;20518;-84
2022/09/10 07:50:19;;;;;;;2.22;2.13;;;;;;;;;;5061951;28;20036;-83
2022/09/10 07:52:51;;;;;;;1.88;1.80;;;;;;;;;;5029073;28;20048;-83
2022/09/10 07:55:22;;;;;;;3.35;2.60;;;;;;;;;;5047228;28;20691;-82
2022/09/10 07:57:49;;;;;;;2.53;2.30;;;;;;;;;;5049277;28;20097;-83
2022/09/10 08:00:17;;;;;;;2.40;2.00;;;;;;;;;;5032969;28;20421;-85
2022/09/10 08:02:53;;;;;;;2.00;1.77;;;;;;;;;;5034273;28;20041;-84
2022/09/10 08:05:22;;;;;;;1.80;1.80;;;;;;;;;;5051143;28;20040;-84
2022/09/10 08:07:53;;;;;;;2.70;1.92;;;;;;;;;;5051665;28;20120;-84
2022/09/10 08:10:21;;;;;;;4.10;1.85;;;;;;;;;;5051569;28;20094;-83
2022/09/10 08:12:50;;;;;;;2.15;1.95;;;;;;;;;;5034270;28;20097;-84
2022/09/10 08:15:18;;;;;;;1.67;1.58;;;;;;;;;;5051027;28;20037;-85
2022/09/10 08:17:45;;;;;;;1.52;1.40;;;;;;;;;;5036347;28;20057;-84
2022/09/10 08:20:14;;;;;;;1.85;1.52;;;;;;;;;;5014685;28;20579;-84
2022/09/10 08:22:44;;;;;;;1.52;1.40;;;;;;;;;;5030514;28;20160;-82
2022/09/10 08:25:11;;;;;;;1.98;1.88;;;;;;;;;;5044525;28;20102;-84
2022/09/10 08:27:41;;;;;;;3.90;1.30;;;;;;;;;;5052510;28;20079;-83
2022/09/10 08:30:09;;;;;;;1.42;1.17;;;;;;;;;;5054590;23;20041;-78
2022/09/10 08:32:37;;;;;;;1.10;1.00;;;;;;;;;;4991396;28;20054;-79
2022/09/10 08:35:05;;;;;;;1.15;1.05;;;;;;;;;;4991533;28;20040;-79
2022/09/10 08:37:33;;;;;;;1.98;1.42;;;;;;;;;;4975019;28;20096;-79
2022/09/10 08:40:04;;;;;;;2.45;0.90;;;;;;;;;;4959300;28;20048;-79
2022/09/10 08:42:36;;;;;;;1.40;1.30;;;;;;;;;;4989653;28;20157;-78
2022/09/10 08:45:09;;;;;;;1.42;1.13;;;;;;;;;;4973587;28;20085;-79
2022/09/10 08:47:44;;;;;;;1.52;1.00;;;;;;;;;;4972452;28;20045;-79
2022/09/10 08:50:19;;;;;;;1.27;0.70;;;;;;;;;;4998381;28;20049;-78
2022/09/10 08:52:48;;;;;;;1.13;0.90;;;;;;;;;;5009283;28;20107;-78
2022/09/10 08:55:21;;;;;;;0.93;0.93;;;;;;;;;;5009197;28;20523;-78
2022/09/10 08:57:58;;;;;;;1.38;1.00;;;;;;;;;;5008663;28;20063;-78
2022/09/10 09:00:32;;;;;;;0.80;0.80;;;;;;;;;;5009143;28;20072;-78
2022/09/10 09:03:14;;;;;;;1.05;0.90;;;;;;;;;;5011915;28;20067;-79
2022/09/10 09:05:48;;;;;;;4.10;1.10;;;;;;;;;;5012421;28;20380;-80
2022/09/10 09:08:18;;;;;;;5.25;1.30;;;;;;;;;;5013159;28;20413;-79
2022/09/10 09:10:47;;;;;;;;;;;;;;;;;;5012882;28;20041;-79
2022/09/10 09:13:44;;;;;;;6.28;1.50;;;;;;;;;;4997739;28;19979;-81
2022/09/10 09:16:20;;;;;;;2.70;1.50;;;;;;;;;;4992944;28;20090;-79
2022/09/10 09:18:53;;;;;;;4.13;1.58;;;;;;;;;;5013232;28;20038;-79
2022/09/10 09:21:32;;;;;;;3.00;1.90;;;;;;;;;;5013199;28;20052;-79
2022/09/10 09:24:03;;;;;;;4.15;1.40;;;;;;;;;;5013425;28;20045;-79
2022/09/10 09:26:53;;;;;;;3.53;1.70;;;;;;;;;;5012298;28;20099;-79
2022/09/10 09:29:24;;;;;;;3.60;1.48;;;;;;;;;;5011893;28;20045;-78
2022/09/10 09:31:57;;;;;;;4.72;2.05;;;;;;;;;;5004263;28;20048;-79
2022/09/10 09:34:32;;;;;;;3.40;1.50;;;;;;;;;;4987561;28;20145;-79
2022/09/10 09:37:02;;;;;;;3.53;1.75;;;;;;;;;;4977401;28;20077;-79
2022/09/10 09:39:41;;;;;;;2.83;1.40;;;;;;;;;;4991790;28;20037;-79
2022/09/10 09:42:18;;;;;;;3.25;1.98;;;;;;;;;;4975794;28;20057;-79
2022/09/10 09:44:50;;;;;;;6.38;2.30;;;;;;;;;;4992298;28;20037;-79
2022/09/10 09:47:23;;;;;;;3.42;2.15;;;;;;;;;;4991981;28;20037;-80
2022/09/10 09:49:50;;;;;;;2.88;1.52;;;;;;;;;;4992798;28;20092;-79
2022/09/10 09:52:23;;;;;;;1.95;1.85;;;;;;;;;;5002278;28;20064;-79
2022/09/10 09:54:56;;;;;;;3.80;2.20;;;;;;;;;;5030008;28;20048;-79
2022/09/10 09:57:41;;;;;;;4.55;2.00;;;;;;;;;;4996737;28;20049;-79
2022/09/10 10:00:28;;;;;;;2.78;2.25;;;;;;;;;;5030688;28;20051;-79
2022/09/10 10:03:03;;;;;;;1.80;1.55;;;;;;;;;;5012361;28;20381;-79
2022/09/10 10:05:34;;;;;;;2.63;1.90;;;;;;;;;;4995720;28;20049;-79
2022/09/10 10:08:02;;;;;;;2.25;1.75;;;;;;;;;;5030361;28;20030;-79
2022/09/10 10:10:29;;;;;;;3.45;1.60;;;;;;;;;;4999860;28;20049;-80
2022/09/10 10:12:57;;;;;;;1.95;1.35;;;;;;;;;;5027294;28;20056;-80
2022/09/10 10:15:38;;;;;;;4.10;1.70;;;;;;;;;;5030879;28;20555;-80
2022/09/10 10:18:21;;;;;;;2.08;1.20;;;;;;;;;;5013310;28;20088;-79
2022/09/10 10:20:52;;;;;;;1.60;1.13;;;;;;;;;;5010003;28;20394;-79
2022/09/10 10:23:35;;;;;;;1.55;0.90;;;;;;;;;;5019501;28;20162;-80
2022/09/10 10:26:20;;;;;;;2.38;1.20;;;;;;;;;;5029987;28;20387;-79
2022/09/10 10:28:53;;;;;;;1.05;0.90;;;;;;;;;;5030168;28;20053;-79
2022/09/10 10:31:22;;;;;;;1.65;0.90;;;;;;;;;;4996521;28;20045;-80
2022/09/10 10:34:00;;;;;;;2.15;1.35;;;;;;;;;;5012927;28;20056;-79
2022/09/10 10:36:34;;;;;;;0.82;0.80;;;;;;;;;;5031874;28;20060;-81
2022/09/10 10:39:09;;;;;;;1.15;0.70;;;;;;;;;;5015712;28;20152;-80
2022/09/10 10:41:50;;;;;;;0.60;0.60;;;;;;;;;;5030199;28;20532;-79
2022/09/10 10:44:34;;;;;;;1.52;0.70;;;;;;;;;;5018108;28;20129;-80
2022/09/10 10:47:14;;;;;;;1.42;0.95;;;;;;;;;;4998809;28;20041;-80
2022/09/10 10:49:50;;;;;;;1.02;0.90;;;;;;;;;;5038265;28;20060;-81
2022/09/10 10:52:24;;;;;;;1.05;0.70;;;;;;;;;;5019282;28;20080;-80
2022/09/10 10:55:12;;;;;;;1.90;1.00;;;;;;;;;;5000135;28;20050;-79
2022/09/10 10:57:39;;;;;;;2.65;1.67;;;;;;;;;;4997388;28;20041;-80
2022/09/10 11:00:11;;;;;;;1.70;1.10;;;;;;;;;;5015315;28;20330;-81
2022/09/10 11:02:42;;;;;;;2.30;1.10;;;;;;;;;;5016977;28;20513;-80
2022/09/10 11:05:18;;;;;;;1.40;1.00;;;;;;;;;;4999180;28;20500;-80
2022/09/10 11:07:46;;;;;;;2.17;1.30;;;;;;;;;;5033531;28;20133;-80
2022/09/10 11:10:21;;;;;;;1.55;1.10;;;;;;;;;;5025832;28;20042;-80
2022/09/10 11:13:09;;;;;;;1.90;1.10;;;;;;;;;;4998492;28;20050;-79
2022/09/10 11:15:51;;;;;;;1.60;1.10;;;;;;;;;;5010426;28;20053;-79
2022/09/10 11:18:36;;;;;;;1.13;0.80;;;;;;;;;;5012645;28;20051;-80
2022/09/10 11:21:21;;;;;;;0.82;0.80;;;;;;;;;;5012965;28;20038;-79
2022/09/10 11:23:50;;;;;;;1.20;1.10;;;;;;;;;;4992129;28;20529;-79
2022/09/10 11:26:36;;;;;;;2.28;1.40;;;;;;;;;;4998866;28;20060;-80
2022/09/10 11:29:03;;;;;;;0.93;0.70;;;;;;;;;;5014535;28;20520;-79
2022/09/10 11:31:41;;;;;;;1.17;0.70;;;;;;;;;;5030839;28;20155;-78
2022/09/10 11:34:08;;;;;;;0.95;0.60;;;;;;;;;;5027440;28;20107;-79
2022/09/10 11:36:44;;;;;;;1.95;0.90;;;;;;;;;;5011077;28;20057;-79
2022/09/10 11:39:32;;;;;;;0.60;0.60;;;;;;;;;;5011712;28;20049;-78
2022/09/10 11:42:04;;;;;;;0.90;0.60;;;;;;;;;;5010649;28;20093;-79
2022/09/10 11:44:53;;;;;;;0.55;0.40;;;;;;;;;;5011440;28;20497;-79
2022/09/10 11:47:32;;;;;;;2.28;0.35;;;;;;;;;;5010260;28;20215;-79
2022/09/10 11:50:00;;;;;;;2.15;0.40;;;;;;;;;;5026016;28;20052;-78
2022/09/10 11:52:32;;;;;;;38.00;2.80;;;;;;;;;;5007729;28;20060;-80
2022/09/10 11:55:07;;;;;;;3.70;1.48;;;;;;;;;;4984993;28;20045;-78
2022/09/10 11:57:37;;;;;;;4.00;1.30;;;;;;;;;;5018384;28;20429;-79
2022/09/10 12:00:10;;;;;;;4.38;1.92;;;;;;;;;;5004286;28;20788;-81
2022/09/10 12:02:56;;;;;;;1.25;0.70;;;;;;;;;;5023061;28;20072;-80
2022/09/10 12:05:59;;;;;;;2.10;0.93;;;;;;;;;;5001887;28;20045;-80
2022/09/10 12:08:28;;;;;;;2.38;1.10;;;;;;;;;;4941029;29;20047;-80
2022/09/10 12:11:14;;;;;;;36.58;1.95;;;;;;;;;;5002195;28;20763;-81
2022/09/10 12:13:44;;;;;;;16.42;2.22;;;;;;;;;;5018681;28;20072;-81
2022/09/10 12:16:18;;;;;;;7.05;1.98;;;;;;;;;;5005514;28;20065;-81
2022/09/10 12:18:51;;;;;;;7.53;2.03;;;;;;;;;;5010192;28;20087;-80
2022/09/10 12:21:28;;;;;;;3.92;1.60;;;;;;;;;;5003468;28;20471;-81
2022/09/10 12:23:56;;;;;;;4.03;1.42;;;;;;;;;;5010837;28;20085;-81
2022/09/10 12:26:24;;;;;;;1.67;1.02;;;;;;;;;;4979444;28;20065;-80
2022/09/10 12:28:51;;;;;;;3.17;1.23;;;;;;;;;;5012105;28;20059;-81
2022/09/10 12:31:19;;;;;;;7.28;2.40;;;;;;;;;;5015888;28;20516;-80
2022/09/10 12:33:47;;;;;;;4.47;2.17;;;;;;;;;;5007081;28;20064;-81
2022/09/10 12:36:29;;;;;;;12.77;2.03;;;;;;;;;;5007195;28;20099;-80
2022/09/10 12:39:21;;;;;;;10.07;2.30;;;;;;;;;;5010083;28;20408;-81
2022/09/10 12:41:49;;;;;;;43.03;2.65;;;;;;;;;;5008593;28;20469;-80
2022/09/10 12:44:35;;;;;;;1.67;1.58;;;;;;;;;;5009195;28;20092;-83
2022/09/10 12:47:29;;;;;;;2.00;1.10;;;;;;;;;;4991336;28;20133;-81
2022/09/10 12:49:58;;;;;;;10.48;1.77;;;;;;;;;;5024512;28;20139;-81
2022/09/10 12:52:25;;;;;;;2.60;1.70;;;;;;;;;;5009350;28;20119;-80
2022/09/10 12:55:04;;;;;;;10.38;3.38;;;;;;;;;;4989963;28;20048;-80
2022/09/10 12:57:50;;;;;;;5.70;3.00;;;;;;;;;;5005370;28;20374;-80
2022/09/10 13:00:21;;;;;;;6.15;2.50;;;;;;;;;;5021345;28;20033;-80
2022/09/10 13:02:49;;;;;;;;;;;;;;;;;;5021573;28;20038;-80
2022/09/10 13:05:26;;;;;;;3.60;2.08;;;;;;;;;;5011375;28;19960;-79
2022/09/10 13:07:59;;;;;;;4.65;2.13;;;;;;;;;;5018164;28;20105;-80
2022/09/10 13:10:27;;;;;;;3.05;2.75;;;;;;;;;;4999816;28;20132;-80
2022/09/10 13:13:03;;;;;;;7.90;3.33;;;;;;;;;;4985911;28;20320;-79
2022/09/10 13:15:40;;;;;;;8.73;3.40;;;;;;;;;;5007736;28;20056;-79
2022/09/10 13:18:25;;;;;;;6.93;5.22;;;;;;;;;;5009574;28;20056;-79
2022/09/10 13:20:52;;;;;;;9.73;6.70;;;;;;;;;;5007461;28;20045;-79
2022/09/10 13:23:22;;;;;;;10.02;6.15;;;;;;;;;;4998661;28;20104;-80
2022/09/10 13:25:50;;;;;;;7.70;5.25;;;;;;;;;;5006929;28;20529;-79
2022/09/10 13:28:31;;;;;;;5.47;3.65;;;;;;;;;;4989402;28;20363;-79
2022/09/10 13:31:00;;;;;;;6.07;3.80;;;;;;;;;;4994032;28;20168;-79
2022/09/10 13:33:29;;;;;;;6.05;3.40;;;;;;;;;;5024688;28;20332;-79
2022/09/10 13:36:04;;;;;;;6.22;4.40;;;;;;;;;;5026871;28;20042;-80
2022/09/10 13:38:47;;;;;;;4.38;3.20;;;;;;;;;;5002414;28;20065;-80
2022/09/10 13:41:32;;;;;;;4.38;2.47;;;;;;;;;;5002809;28;20088;-80
2022/09/10 13:43:59;;;;;;;7.70;3.15;;;;;;;;;;5026711;28;20044;-79
2022/09/10 13:46:34;;;;;;;4.55;3.17;;;;;;;;;;5009466;28;20045;-80
2022/09/10 13:49:21;;;;;;;1.23;1.02;;;;;;;;;;5011247;28;20049;-79
2022/09/10 13:51:54;;;;;;;1.15;0.75;;;;;;;;;;5030374;28;20052;-82
2022/09/10 13:54:28;;;;;;;1.25;0.90;;;;;;;;;;5022396;28;20517;-80
2022/09/10 13:56:56;;;;;;;1.65;1.00;;;;;;;;;;5013920;28;20049;-81
2022/09/10 13:59:29;;;;;;;0.80;0.80;;;;;;;;;;5013370;28;20065;-80
2022/09/10 14:01:58;;;;;;;3.85;0.80;;;;;;;;;;5008979;28;20231;-80
2022/09/10 14:04:27;;;;;;;2.65;0.80;;;;;;;;;;5010195;28;20049;-80
2022/09/10 14:07:06;;;;;;;0.73;0.60;;;;;;;;;;5027770;28;20383;-80
2022/09/10 14:09:36;;;;;;;0.93;0.32;;;;;;;;;;5027965;28;20050;-80
2022/09/10 14:12:07;;;;;;;0.50;0.50;;;;;;;;;;5010711;28;20148;-80
2022/09/10 14:14:36;;;;;;;0.70;0.70;;;;;;;;;;4974912;28;20363;-80
2022/09/10 14:17:07;;;;;;;1.70;0.73;;;;;;;;;;5020038;28;20429;-80
2022/09/10 14:19:41;;;;;;;1.02;0.68;;;;;;;;;;5027594;28;20126;-80
2022/09/10 14:22:14;;;;;;;3.70;0.80;;;;;;;;;;5011314;28;20057;-80
2022/09/10 14:24:53;;;;;;;0.95;0.80;;;;;;;;;;5028940;28;20059;-80
2022/09/10 14:27:25;;;;;;;0.93;0.90;;;;;;;;;;5031882;28;20145;-80
2022/09/10 14:29:58;;;;;;;1.00;0.90;;;;;;;;;;5017223;28;20574;-80
2022/09/10 14:32:30;;;;;;;2.20;1.00;;;;;;;;;;4987920;28;20045;-80
2022/09/10 14:35:19;;;;;;;0.80;0.80;;;;;;;;;;5020265;28;20045;-80
2022/09/10 14:37:47;;;;;;;0.80;0.80;;;;;;;;;;5003125;28;20054;-80
2022/09/10 14:40:18;;;;;;;2.10;1.10;;;;;;;;;;5007668;28;20107;-80
2022/09/10 14:42:47;;;;;;;1.58;1.00;;;;;;;;;;4990756;28;20041;-79
2022/09/10 14:45:34;;;;;;;0.50;0.50;;;;;;;;;;5017267;28;20072;-80
2022/09/10 14:48:01;;;;;;;0.93;0.80;;;;;;;;;;5020917;28;20041;-80
2022/09/10 14:50:30;;;;;;;0.50;0.50;;;;;;;;;;5004869;28;20437;-80
2022/09/10 14:52:58;;;;;;;0.38;0.38;;;;;;;;;;5016689;28;20071;-80
2022/09/10 14:55:37;;;;;;;1.35;0.50;;;;;;;;;;4992246;28;20060;-80
2022/09/10 14:58:05;;;;;;;0.85;0.82;;;;;;;;;;5024259;28;20053;-81
2022/09/10 15:00:32;;;;;;;3.95;0.50;;;;;;;;;;5014162;28;20050;-80
2022/09/10 15:03:00;;;;;;;1.65;0.40;;;;;;;;;;5009362;28;20128;-81
2022/09/10 15:05:28;;;;;;;0.30;0.30;;;;;;;;;;5010331;28;20330;-80
2022/09/10 15:07:55;;;;;;;1.58;0.30;;;;;;;;;;5023442;28;20041;-81
2022/09/10 15:10:26;;;;;;;1.60;0.60;;;;;;;;;;5025430;28;20049;-81
2022/09/10 15:12:55;;;;;;;0.73;0.70;;;;;;;;;;5010265;28;20139;-81